South Elgin, IL (60177)

1:44 PM CDT on June 02, 2015 (GMT -0500)
Concord Park | | Change Station
CLOSE
Current Station
Personal Weather Station
Location: South Elgin, IL
Elevation: 778 ft
Nearby Weather Stations

Elev 778 ft 41.99 °N, 88.30 °W | Updated 14 minutes ago

Clear
Clear
72.1 °F
Feels Like 77 °F
N
2.7
Wind Variable Wind from ESE

Today
High -- | Low -- °F
--% Chance of Precip.
Yesterday
High -- | Low -- °F
Precip. -- in
5:19 AM 8:22 PM
Full, 100% visible
Pressure 30.14 in
Visibility 10.0 miles
Clouds Clear
Heat Index 77 °F
Dew Point 52 °F
Humidity 50%
Rainfall 0.00 in
Snow Depth Not available.
UV 12 out of 12
Pollen 6.90 out of 12
Air Quality Not available.
Flu Activity Sporadic
METAR KDPA 021752Z VRB04KT 10SM CLR 21/08 A3014 RMK AO2 SLP205 T02060083 10206 20083 58017

More Conditions Fewer Conditions

Pressure 30.14 in
Visibility 10.0 miles
Clouds Clear
Heat Index 77 °F
Dew Point 52 °F
Humidity 50%
Rainfall 0.00 in
Snow Depth Not available.
UV 12 out of 12
Pollen 6.90 out of 12
Air Quality Not available.
Flu Activity Sporadic
METAR KDPA 021752Z VRB04KT 10SM CLR 21/08 A3014 RMK AO2 SLP205 T02060083 10206 20083 58017

More Conditions Fewer Conditions

10-Day Weather Forecast

×

Almanac

Astronomy

Jun. 02, 2015 Rise Set
Actual Time
Civil Twilight
Nautical Twilight
Astronomical Twilight
Moon
Length of Visible Light
Length of Day
Tomorrow will be .
, % of the Moon is Illuminated

Today's Extremes

State Highs State Lows

Community

WunderPhotos

Upload Photos

1,825,997 photos uploaded!

WunderBlogs® & News

Nearby

Air Quality

  Air Quality AQ Index Pollutant
Not available.

Snow Depth

Station Depth Elevation

Earthquake Activity

City Distance Mag. Time & Date
Minimum magnitude displayed is 2.5.

Coastal Water Temperatures

Place Temperature

Stations

Nearby Weather Stations

Station Location Temp. Windchill Dew Point Humidity Wind Precip. Elev Updated Type